createdAt,value
2018-04-06T00:01:14.693Z,6.17
2018-04-06T00:03:42.955Z,5.93
2018-04-06T00:06:11.210Z,8.37
2018-04-06T00:08:39.499Z,4.97
2018-04-06T00:11:07.772Z,6.63
2018-04-06T00:13:36.013Z,4.23
2018-04-06T00:16:05.030Z,3.70
2018-04-06T00:18:34.078Z,5.20
2018-04-06T00:21:02.320Z,7.13
2018-04-06T00:23:30.607Z,5.13
2018-04-06T00:25:58.860Z,2.77
2018-04-06T00:28:27.148Z,3.83
2018-04-06T00:30:55.395Z,8.43
2018-04-06T00:33:23.737Z,3.50
2018-04-06T00:35:52.007Z,4.30
2018-04-06T00:38:20.295Z,3.60
2018-04-06T00:40:48.588Z,3.70
2018-04-06T00:43:16.873Z,2.97
2018-04-06T00:45:45.329Z,2.63
2018-04-06T00:48:13.638Z,3.33
2018-04-06T00:50:41.898Z,4.00
2018-04-06T00:53:21.934Z,4.17
2018-04-06T00:55:50.212Z,3.47
2018-04-06T00:58:18.481Z,3.80
2018-04-06T01:00:46.764Z,3.77
2018-04-06T01:03:15.025Z,2.40
2018-04-06T01:05:43.312Z,3.63
2018-04-06T01:08:11.786Z,3.37
2018-04-06T01:10:40.060Z,3.87
2018-04-06T01:13:08.343Z,6.20
2018-04-06T01:15:36.616Z,5.77
2018-04-06T01:18:04.912Z,5.63
2018-04-06T01:20:33.188Z,3.13
2018-04-06T01:23:01.464Z,3.70
2018-04-06T01:25:29.737Z,7.30
2018-04-06T01:27:57.981Z,8.67
2018-04-06T01:30:26.267Z,3.77
2018-04-06T01:32:54.544Z,5.60
2018-04-06T01:35:22.819Z,3.87
2018-04-06T01:37:51.100Z,5.50
2018-04-06T01:40:19.403Z,3.20
2018-04-06T01:42:47.718Z,5.00
2018-04-06T01:45:16.028Z,3.93
2018-04-06T01:47:44.278Z,5.63
2018-04-06T01:50:13.317Z,8.97
2018-04-06T01:52:41.580Z,6.10
2018-04-06T01:55:09.856Z,4.93
2018-04-06T01:57:38.172Z,4.90
2018-04-06T02:00:07.247Z,5.90
2018-04-06T02:02:35.494Z,5.97
2018-04-06T02:05:03.762Z,6.03
2018-04-06T02:07:32.021Z,5.87
2018-04-06T02:10:00.318Z,5.73
2018-04-06T02:12:28.553Z,4.63
2018-04-06T02:14:56.817Z,6.10
2018-04-06T02:17:25.083Z,5.67
2018-04-06T02:19:53.355Z,6.93
2018-04-06T02:22:21.663Z,7.10
2018-04-06T02:24:50.767Z,7.50
2018-04-06T02:27:19.023Z,4.53
2018-04-06T02:29:48.059Z,6.83
2018-04-06T02:32:16.292Z,7.10
2018-04-06T02:34:44.564Z,6.03
2018-04-06T02:37:13.563Z,10.67
2018-04-06T02:39:41.829Z,5.57
2018-04-06T02:42:10.835Z,6.03
2018-04-06T02:44:39.094Z,8.93
2018-04-06T02:47:08.101Z,7.57
2018-04-06T02:49:36.371Z,7.07
2018-04-06T02:52:05.404Z,5.97
2018-04-06T02:54:33.676Z,6.07
2018-04-06T02:57:01.958Z,8.23
2018-04-06T02:59:30.214Z,5.00
2018-04-06T03:01:58.467Z,6.70
2018-04-06T03:04:27.487Z,10.53
2018-04-06T03:06:55.751Z,10.07
2018-04-06T03:09:24.008Z,5.17
2018-04-06T03:11:53.037Z,9.43
2018-04-06T03:14:21.275Z,5.80
2018-04-06T03:16:50.300Z,4.80
2018-04-06T03:19:18.555Z,7.87
2018-04-06T03:21:47.585Z,8.70
2018-04-06T03:24:15.820Z,5.27
2018-04-06T03:26:44.855Z,6.27
2018-04-06T03:29:13.100Z,7.27
2018-04-06T03:31:42.128Z,6.80
2018-04-06T03:34:10.382Z,10.10
2018-04-06T03:36:38.640Z,5.80
2018-04-06T03:39:07.647Z,9.90
2018-04-06T03:41:35.900Z,8.03
2018-04-06T03:44:04.918Z,9.00
2018-04-06T03:46:33.167Z,8.73
2018-04-06T03:49:02.215Z,5.60
2018-04-06T03:51:30.465Z,9.70
2018-04-06T03:53:58.733Z,7.97
2018-04-06T03:56:26.991Z,10.47
2018-04-06T03:58:56.048Z,7.17
2018-04-06T04:01:24.277Z,6.17
2018-04-06T04:03:52.533Z,7.67
2018-04-06T04:06:21.555Z,10.17
2018-04-06T04:08:49.831Z,8.10
2018-04-06T04:11:18.133Z,6.90
2018-04-06T04:13:46.378Z,7.40
2018-04-06T04:16:14.639Z,8.67
2018-04-06T04:18:43.662Z,9.33
2018-04-06T04:21:11.899Z,8.67
2018-04-06T04:23:40.919Z,6.23
2018-04-06T04:26:09.172Z,7.10
2018-04-06T04:28:38.205Z,7.17
2018-04-06T04:31:06.459Z,8.13
2018-04-06T04:33:34.731Z,8.63
2018-04-06T04:36:03.748Z,11.33
2018-04-06T04:38:31.997Z,8.60
2018-04-06T04:41:01.032Z,7.10
2018-04-06T04:43:29.327Z,9.07
2018-04-06T04:45:58.485Z,5.67
2018-04-06T04:48:27.487Z,8.33
2018-04-06T04:50:55.771Z,7.63
2018-04-06T04:53:24.037Z,8.73
2018-04-06T04:55:52.314Z,8.27
2018-04-06T04:58:20.625Z,6.93
2018-04-06T05:00:48.877Z,9.37
2018-04-06T05:03:17.121Z,9.80
2018-04-06T05:05:45.403Z,6.57
2018-04-06T05:08:13.667Z,9.10
2018-04-06T05:10:42.694Z,9.80
2018-04-06T05:13:10.951Z,16.10
2018-04-06T05:15:39.230Z,13.23
2018-04-06T05:18:07.492Z,12.93
2018-04-06T05:20:36.519Z,6.33
2018-04-06T05:23:04.796Z,9.37
2018-04-06T05:25:33.071Z,7.83
2018-04-06T05:28:01.328Z,7.20
2018-04-06T05:30:30.368Z,6.83
2018-04-06T05:32:58.617Z,6.03
2018-04-06T05:35:26.931Z,9.37
2018-04-06T05:37:55.202Z,8.77
2018-04-06T05:40:23.466Z,8.80
2018-04-06T05:42:51.718Z,9.67
2018-04-06T05:45:19.985Z,11.37
2018-04-06T05:47:48.248Z,10.33
2018-04-06T05:50:16.523Z,10.43
2018-04-06T05:52:44.799Z,9.70
2018-04-06T05:55:13.072Z,12.33
2018-04-06T05:57:41.374Z,8.83
2018-04-06T06:00:09.623Z,9.60
2018-04-06T06:02:37.887Z,10.57
2018-04-06T06:05:06.940Z,10.57
2018-04-06T06:07:35.204Z,11.00
2018-04-06T06:10:03.471Z,10.93
2018-04-06T06:12:31.718Z,13.97
2018-04-06T06:14:59.968Z,14.23
2018-04-06T06:17:29.008Z,12.97
2018-04-06T06:19:57.274Z,12.13
2018-04-06T06:22:25.590Z,9.30
2018-04-06T06:24:53.858Z,14.50
2018-04-06T06:27:22.124Z,13.93
2018-04-06T06:29:50.384Z,13.17
2018-04-06T06:32:18.671Z,16.10
2018-04-06T06:34:46.950Z,16.57
2018-04-06T06:37:15.234Z,16.57
2018-04-06T06:39:43.537Z,15.17
2018-04-06T06:42:11.812Z,16.23
2018-04-06T06:44:40.095Z,16.37
2018-04-06T06:47:08.419Z,16.93
2018-04-06T06:49:36.861Z,17.67
2018-04-06T06:52:05.197Z,17.33
2018-04-06T06:54:33.489Z,14.97
2018-04-06T06:57:01.799Z,20.60
2018-04-06T06:59:30.825Z,20.20
2018-04-06T07:01:59.861Z,16.77
2018-04-06T07:04:28.961Z,15.23
2018-04-06T07:06:57.249Z,18.80
2018-04-06T07:09:25.523Z,16.30
2018-04-06T07:11:53.862Z,22.53
2018-04-06T07:14:22.152Z,17.73
2018-04-06T07:16:50.439Z,20.60
2018-04-06T07:19:18.681Z,15.70
2018-04-06T07:21:46.992Z,16.03
2018-04-06T07:24:15.263Z,17.37
2018-04-06T07:26:43.598Z,16.10
2018-04-06T07:29:11.875Z,15.87
2018-04-06T07:31:40.959Z,16.40
2018-04-06T07:34:09.272Z,15.17
2018-04-06T07:36:37.558Z,17.77
2018-04-06T07:39:06.620Z,21.13
2018-04-06T07:41:34.948Z,19.60
2018-04-06T07:44:03.242Z,17.00
2018-04-06T07:46:32.331Z,14.43
2018-04-06T07:49:00.640Z,15.50
2018-04-06T07:51:28.915Z,17.20
2018-04-06T07:53:57.270Z,18.57
2018-04-06T07:56:26.384Z,10.97
2018-04-06T07:58:54.671Z,9.47
2018-04-06T08:01:23.075Z,10.90
2018-04-06T08:03:51.361Z,10.20
2018-04-06T08:06:19.632Z,12.53
2018-04-06T08:08:48.739Z,9.00
2018-04-06T08:11:17.022Z,10.77
2018-04-06T08:13:45.280Z,11.60
2018-04-06T08:16:13.553Z,14.63
2018-04-06T08:18:41.826Z,8.87
2018-04-06T08:21:10.110Z,12.40
2018-04-06T08:23:38.404Z,10.37
2018-04-06T08:26:07.740Z,9.63
2018-04-06T08:28:36.014Z,10.60
2018-04-06T08:31:05.041Z,10.10
2018-04-06T08:33:33.372Z,11.53
2018-04-06T08:36:02.476Z,10.90
2018-04-06T08:38:31.657Z,9.37
2018-04-06T08:41:00.302Z,8.93
2018-04-06T08:43:28.592Z,11.07
2018-04-06T08:45:56.855Z,8.23
2018-04-06T08:48:25.109Z,11.87
2018-04-06T08:50:53.978Z,9.77
2018-04-06T08:53:22.243Z,10.73
2018-04-06T08:55:50.614Z,11.00
2018-04-06T08:58:18.908Z,14.60
2018-04-06T09:00:47.924Z,10.75
2018-04-06T09:03:16.262Z,10.05
2018-04-06T09:05:44.539Z,11.20
2018-04-06T09:08:12.837Z,10.10
2018-04-06T09:10:41.110Z,10.07
2018-04-06T09:13:09.422Z,9.63
2018-04-06T09:15:37.704Z,14.73
2018-04-06T09:18:06.455Z,12.47
2018-04-06T09:20:34.731Z,15.27
2018-04-06T09:23:03.755Z,10.57
2018-04-06T09:25:32.080Z,17.63
2018-04-06T09:28:00.337Z,11.37
2018-04-06T09:30:28.661Z,11.73
2018-04-06T09:32:56.967Z,13.33
2018-04-06T09:35:25.258Z,10.93
2018-04-06T09:37:53.530Z,13.63
2018-04-06T09:40:21.808Z,14.10
2018-04-06T09:42:50.828Z,11.60
2018-04-06T09:45:19.117Z,9.83
2018-04-06T09:47:47.358Z,12.90
2018-04-06T09:50:15.638Z,8.37
2018-04-06T09:52:43.885Z,8.50
2018-04-06T09:55:12.144Z,9.03
2018-04-06T09:57:40.450Z,7.77
2018-04-06T10:00:08.744Z,8.63
2018-04-06T10:02:39.968Z,14.93
2018-04-06T10:05:08.493Z,8.80
2018-04-06T10:07:36.756Z,9.03
2018-04-06T10:10:05.017Z,11.13
2018-04-06T10:12:33.281Z,7.80
2018-04-06T10:15:01.630Z,7.23
2018-04-06T10:17:30.662Z,12.17
2018-04-06T10:19:58.990Z,9.17
2018-04-06T10:22:27.273Z,6.37
2018-04-06T10:24:55.559Z,7.87
2018-04-06T10:27:23.850Z,7.67
2018-04-06T10:29:52.370Z,7.33
2018-04-06T10:32:20.707Z,9.33
2018-04-06T10:34:49.006Z,6.17
2018-04-06T10:37:17.292Z,8.30
2018-04-06T10:39:45.537Z,6.57
2018-04-06T10:42:13.851Z,6.33
2018-04-06T10:44:42.117Z,8.10
2018-04-06T10:47:10.444Z,6.00
2018-04-06T10:49:38.714Z,6.53
2018-04-06T10:52:06.999Z,6.80
2018-04-06T10:54:35.258Z,9.10
2018-04-06T10:57:03.532Z,5.80
2018-04-06T10:59:31.872Z,6.23
2018-04-06T11:02:00.366Z,7.00
2018-04-06T11:04:28.767Z,5.90
2018-04-06T11:06:57.086Z,5.43
2018-04-06T11:09:25.340Z,6.67
2018-04-06T11:11:53.607Z,8.33
2018-04-06T11:14:21.926Z,8.07
2018-04-06T11:16:50.262Z,8.70
2018-04-06T11:19:18.584Z,7.07
2018-04-06T11:21:46.868Z,8.87
2018-04-06T11:24:15.172Z,7.80
2018-04-06T11:26:43.538Z,7.97
2018-04-06T11:29:11.844Z,7.83
2018-04-06T11:31:40.085Z,5.90
2018-04-06T11:34:08.361Z,8.73
2018-04-06T11:36:36.603Z,8.07
2018-04-06T11:39:04.880Z,7.83
2018-04-06T11:41:33.197Z,7.37
2018-04-06T11:44:01.781Z,6.73
2018-04-06T11:46:30.174Z,7.70
2018-04-06T11:48:58.675Z,7.57
2018-04-06T11:51:27.751Z,8.17
2018-04-06T11:53:56.000Z,7.53
2018-04-06T11:56:24.276Z,6.33
2018-04-06T11:58:52.565Z,7.77
2018-04-06T12:01:20.908Z,6.30
2018-04-06T12:03:49.166Z,10.67
2018-04-06T12:06:17.457Z,7.13
2018-04-06T12:08:45.751Z,6.93
2018-04-06T12:11:14.019Z,8.57
2018-04-06T12:13:42.318Z,8.83
2018-04-06T12:16:10.590Z,6.67
2018-04-06T12:18:38.854Z,7.27
2018-04-06T12:21:07.256Z,6.20
2018-04-06T12:23:35.498Z,7.47
2018-04-06T12:26:03.806Z,6.97
2018-04-06T12:28:32.091Z,6.53
2018-04-06T12:31:00.370Z,7.40
2018-04-06T12:33:28.668Z,10.60
2018-04-06T12:35:57.752Z,7.50
2018-04-06T12:38:26.036Z,6.67
2018-04-06T12:40:54.292Z,9.70
2018-04-06T12:43:22.557Z,8.87
2018-04-06T12:45:50.811Z,10.97
2018-04-06T12:48:19.224Z,7.43
2018-04-06T12:50:47.477Z,8.87
2018-04-06T12:53:15.751Z,26.97
2018-04-06T12:55:44.043Z,9.23
2018-04-06T12:58:12.328Z,13.83
2018-04-06T13:00:40.787Z,7.90
2018-04-06T13:03:10.941Z,8.53
2018-04-06T13:05:39.194Z,9.77
2018-04-06T13:08:07.461Z,7.57
2018-04-06T13:10:35.735Z,8.20
2018-04-06T13:13:04.060Z,8.73
2018-04-06T13:15:33.073Z,6.97
2018-04-06T13:18:01.338Z,9.83
2018-04-06T13:20:29.585Z,7.47
2018-04-06T13:22:57.868Z,8.53
2018-04-06T13:25:26.124Z,6.67
2018-04-06T13:27:54.394Z,6.77
2018-04-06T13:30:22.640Z,7.20
2018-04-06T13:32:50.936Z,9.47
2018-04-06T13:35:19.526Z,9.73
2018-04-06T13:37:47.796Z,6.43
2018-04-06T13:40:16.050Z,8.77
2018-04-06T13:42:44.321Z,7.00
2018-04-06T13:45:12.600Z,7.87
2018-04-06T13:47:40.859Z,8.10
2018-04-06T13:50:09.897Z,7.83
2018-04-06T13:52:38.200Z,8.50
2018-04-06T13:55:06.476Z,10.00
2018-04-06T13:57:34.731Z,11.97
2018-04-06T14:00:03.011Z,9.53
2018-04-06T14:02:31.279Z,10.00
2018-04-06T14:04:59.563Z,8.43
2018-04-06T14:07:27.868Z,13.47
2018-04-06T14:09:56.909Z,10.13
2018-04-06T14:12:25.277Z,9.90
2018-04-06T14:14:54.328Z,11.67
2018-04-06T14:17:22.576Z,9.60
2018-04-06T14:19:51.008Z,11.90
2018-04-06T14:22:20.038Z,10.93
2018-04-06T14:24:48.329Z,10.43
2018-04-06T14:27:16.710Z,9.50
2018-04-06T14:29:45.096Z,10.20
2018-04-06T14:32:13.360Z,8.93
2018-04-06T14:34:41.624Z,11.07
2018-04-06T14:37:10.016Z,9.93
2018-04-06T14:39:38.285Z,9.53
2018-04-06T14:42:06.580Z,10.10
2018-04-06T14:44:35.790Z,9.07
2018-04-06T14:47:04.171Z,8.10
2018-04-06T14:49:32.452Z,8.83
2018-04-06T14:52:00.796Z,7.20
2018-04-06T14:54:29.044Z,9.57
2018-04-06T14:56:57.792Z,11.70
2018-04-06T14:59:26.833Z,8.60
2018-04-06T15:01:55.103Z,6.70
2018-04-06T15:04:23.693Z,9.00
2018-04-06T15:06:52.757Z,6.63
2018-04-06T15:09:21.768Z,7.00
2018-04-06T15:11:50.107Z,10.13
2018-04-06T15:14:18.369Z,11.27
2018-04-06T15:16:47.473Z,8.53
2018-04-06T15:19:16.756Z,6.67
2018-04-06T15:21:45.026Z,7.63
2018-04-06T15:24:14.546Z,7.50
2018-04-06T15:26:42.798Z,7.57
2018-04-06T15:29:11.097Z,6.87
2018-04-06T15:31:40.996Z,9.23
2018-04-06T15:34:09.272Z,9.67
2018-04-06T15:36:37.716Z,6.40
2018-04-06T15:39:06.000Z,9.90
2018-04-06T15:41:34.254Z,7.67
2018-04-06T15:44:03.384Z,9.97
2018-04-06T15:46:31.666Z,8.80
2018-04-06T15:48:59.925Z,9.17
2018-04-06T15:51:28.201Z,7.23
2018-04-06T15:53:56.607Z,9.13
2018-04-06T15:56:24.862Z,7.73
2018-04-06T15:58:53.136Z,7.90
2018-04-06T16:01:21.396Z,9.10
2018-04-06T16:03:49.682Z,8.63
2018-04-06T16:06:17.948Z,7.83
2018-04-06T16:08:47.004Z,7.87
2018-04-06T16:11:15.285Z,7.77
2018-04-06T16:13:43.645Z,8.43
2018-04-06T16:16:11.869Z,9.30
2018-04-06T16:18:40.896Z,7.63
2018-04-06T16:21:09.190Z,7.67
2018-04-06T16:23:37.497Z,7.70
2018-04-06T16:26:05.846Z,8.87
2018-04-06T16:28:34.148Z,10.97
2018-04-06T16:31:02.452Z,8.97
2018-04-06T16:33:30.747Z,8.23
2018-04-06T16:35:58.994Z,10.33
2018-04-06T16:38:27.286Z,8.93
2018-04-06T16:40:55.617Z,9.13
2018-04-06T16:43:23.859Z,6.90
2018-04-06T16:45:52.280Z,7.03
2018-04-06T16:48:20.647Z,6.67
2018-04-06T16:50:48.923Z,6.50
2018-04-06T16:53:17.161Z,10.37
2018-04-06T16:55:45.525Z,8.37
2018-04-06T16:58:13.840Z,7.00
2018-04-06T17:00:42.104Z,8.10
2018-04-06T17:03:10.387Z,10.83
2018-04-06T17:05:38.644Z,7.53
2018-04-06T17:08:06.894Z,8.87
2018-04-06T17:10:35.945Z,9.10
2018-04-06T17:13:04.183Z,8.10
2018-04-06T17:15:32.499Z,8.70
2018-04-06T17:18:00.734Z,7.87
2018-04-06T17:20:29.050Z,8.60
2018-04-06T17:22:57.300Z,7.17
2018-04-06T17:25:25.601Z,11.93
2018-04-06T17:27:53.874Z,10.30
2018-04-06T17:30:22.154Z,7.50
2018-04-06T17:32:50.445Z,7.03
2018-04-06T17:35:18.753Z,7.90
2018-04-06T17:37:47.776Z,7.30
2018-04-06T17:40:16.064Z,8.57
2018-04-06T17:42:44.339Z,8.87
2018-04-06T17:45:12.605Z,8.27
2018-04-06T17:47:40.869Z,7.40
2018-04-06T17:50:09.158Z,8.33
2018-04-06T17:52:37.416Z,7.83
2018-04-06T17:55:05.671Z,10.50
2018-04-06T17:57:34.740Z,13.33
2018-04-06T18:00:03.025Z,8.73
2018-04-06T18:02:31.311Z,10.43
2018-04-06T18:04:59.669Z,9.07
2018-04-06T18:07:27.963Z,7.97
2018-04-06T18:09:56.245Z,10.73
2018-04-06T18:12:24.535Z,10.30
2018-04-06T18:14:52.834Z,8.23
2018-04-06T18:17:21.107Z,10.53
2018-04-06T18:19:49.368Z,7.57
2018-04-06T18:22:17.623Z,12.90
2018-04-06T18:24:45.894Z,7.90
2018-04-06T18:27:14.160Z,8.40
2018-04-06T18:29:42.452Z,11.20
2018-04-06T18:32:11.486Z,9.97
2018-04-06T18:34:39.759Z,8.60
2018-04-06T18:37:08.132Z,8.83
2018-04-06T18:39:36.468Z,16.10
2018-04-06T18:42:04.743Z,17.33
2018-04-06T18:44:33.015Z,20.77
2018-04-06T18:47:01.293Z,11.00
2018-04-06T18:49:29.566Z,10.30
2018-04-06T18:51:58.530Z,11.83
2018-04-06T18:54:26.904Z,9.70
2018-04-06T18:56:55.172Z,13.50
2018-04-06T18:59:23.484Z,11.47
2018-04-06T19:01:51.757Z,10.27
2018-04-06T19:04:20.045Z,11.90
2018-04-06T19:06:49.365Z,14.03
2018-04-06T19:09:18.428Z,10.53
2018-04-06T19:11:46.705Z,8.47
2018-04-06T19:14:14.952Z,9.37
2018-04-06T19:16:43.297Z,11.70
2018-04-06T19:19:11.551Z,11.07
2018-04-06T19:21:40.491Z,10.87
2018-04-06T19:24:08.759Z,9.80
2018-04-06T19:26:37.042Z,10.30
2018-04-06T19:29:06.152Z,13.47
2018-04-06T19:31:34.433Z,10.37
2018-04-06T19:34:02.725Z,9.53
2018-04-06T19:36:31.825Z,11.67
2018-04-06T19:39:00.078Z,9.50
2018-04-06T19:41:28.354Z,11.40
2018-04-06T19:43:56.682Z,11.83
2018-04-06T19:46:24.916Z,10.73
2018-04-06T19:48:53.178Z,10.10
2018-04-06T19:51:21.454Z,12.53
2018-04-06T19:53:49.736Z,14.07
2018-04-06T19:56:17.991Z,11.60
2018-04-06T19:58:46.254Z,9.83
2018-04-06T20:01:14.526Z,9.53
2018-04-06T20:03:42.823Z,9.37
2018-04-06T20:06:11.131Z,9.57
2018-04-06T20:08:39.498Z,10.33
2018-04-06T20:11:07.861Z,8.83
2018-04-06T20:13:36.133Z,11.83
2018-04-06T20:16:04.445Z,8.80
2018-04-06T20:18:32.711Z,8.10
2018-04-06T20:21:01.493Z,10.40
2018-04-06T20:23:30.739Z,10.83
2018-04-06T20:25:59.020Z,10.87
2018-04-06T20:28:27.489Z,9.87
2018-04-06T20:30:55.820Z,10.87
2018-04-06T20:33:24.080Z,10.97
2018-04-06T20:35:52.344Z,9.80
2018-04-06T20:38:20.616Z,9.13
2018-04-06T20:40:49.666Z,11.03
2018-04-06T20:43:17.969Z,9.60
2018-04-06T20:45:46.230Z,9.37
2018-04-06T20:48:14.513Z,9.13
2018-04-06T20:50:42.780Z,11.10
2018-04-06T20:53:11.116Z,11.30
2018-04-06T20:55:39.432Z,9.80
2018-04-06T20:58:07.709Z,12.50
2018-04-06T21:00:35.971Z,10.07
2018-04-06T21:03:04.232Z,11.33
2018-04-06T21:05:32.508Z,12.27
2018-04-06T21:08:00.756Z,10.83
2018-04-06T21:10:29.040Z,10.73
2018-04-06T21:12:57.299Z,11.73
2018-04-06T21:15:26.331Z,10.33
2018-04-06T21:17:54.627Z,8.53
2018-04-06T21:20:22.892Z,11.67
2018-04-06T21:22:51.154Z,11.80
2018-04-06T21:25:19.903Z,10.57
2018-04-06T21:27:48.935Z,11.23
2018-04-06T21:30:17.700Z,14.53
2018-04-06T21:32:46.714Z,11.03
2018-04-06T21:35:14.984Z,9.57
2018-04-06T21:37:43.256Z,13.07
2018-04-06T21:40:11.526Z,10.47
2018-04-06T21:42:39.784Z,10.47
2018-04-06T21:45:08.860Z,10.67
2018-04-06T21:47:37.122Z,11.50
2018-04-06T21:50:05.375Z,11.10
2018-04-06T21:52:33.669Z,9.90
2018-04-06T21:55:02.708Z,10.13
2018-04-06T21:57:31.753Z,10.53
2018-04-06T22:00:00.010Z,10.00
2018-04-06T22:02:28.290Z,10.43
2018-04-06T22:04:56.562Z,8.67
2018-04-06T22:07:24.824Z,10.33
2018-04-06T22:09:53.082Z,10.73
2018-04-06T22:12:21.369Z,11.13
2018-04-06T22:14:50.376Z,9.77
2018-04-06T22:17:18.692Z,10.93
2018-04-06T22:19:46.965Z,12.67
2018-04-06T22:22:15.260Z,11.90
2018-04-06T22:24:43.528Z,11.40
2018-04-06T22:27:11.818Z,12.70
2018-04-06T22:29:40.061Z,10.50
2018-04-06T22:32:08.356Z,13.37
2018-04-06T22:34:36.616Z,12.30
2018-04-06T22:37:04.867Z,11.13
2018-04-06T22:39:33.131Z,18.33
2018-04-06T22:42:01.403Z,12.40
2018-04-06T22:44:30.489Z,12.10
2018-04-06T22:46:59.505Z,12.57
2018-04-06T22:49:27.772Z,13.33
2018-04-06T22:51:56.029Z,13.83
2018-04-06T22:54:24.400Z,14.23
2018-04-06T22:56:53.430Z,14.57
2018-04-06T22:59:21.688Z,12.83
2018-04-06T23:01:49.991Z,13.47
2018-04-06T23:04:18.247Z,12.53
2018-04-06T23:06:46.515Z,12.87
2018-04-06T23:09:14.798Z,12.13
2018-04-06T23:11:43.814Z,14.00
2018-04-06T23:14:13.374Z,13.67
2018-04-06T23:16:42.688Z,14.50
2018-04-06T23:19:11.882Z,12.27
2018-04-06T23:21:41.181Z,14.27
2018-04-06T23:24:10.300Z,13.03
2018-04-06T23:26:40.545Z,12.40
2018-04-06T23:29:08.888Z,13.80
2018-04-06T23:31:37.187Z,12.50
2018-04-06T23:34:05.459Z,13.10
2018-04-06T23:36:33.716Z,12.60
2018-04-06T23:39:02.096Z,14.13
2018-04-06T23:41:30.434Z,10.63
2018-04-06T23:43:58.739Z,12.20
2018-04-06T23:46:27.063Z,12.97
2018-04-06T23:48:55.329Z,12.57
2018-04-06T23:51:23.710Z,13.70
2018-04-06T23:53:51.955Z,10.50
2018-04-06T23:56:20.269Z,13.87
2018-04-06T23:58:48.546Z,11.97
